<?xml version="1.0" encoding="UTF-8" standalone="no" ?>
<gpx xmlns="http://www.topografix.com/GPX/1/1" xmlns:xsi="http://www.w3.org/2001/XMLSchema-instance" xsi:schemaLocation="http://www.topografix.com/GPX/1/1 http://www.topografix.com/GPX/1/1/gpx.xsd" version="1.1" creator="VisuGPX - https://www.visugpx.com">
  <metadata>
    <name>Mallièvre Boucle à partir du parking bas</name>
  </metadata>
  <trk>
    <name><![CDATA[12872354-mallievre(1)]]></name>
    <trkseg>
      <trkpt lat="46.91002" lon="-0.86711">
        <ele>127</ele>
        <time>2021-04-16T06:53:53Z</time>
      </trkpt>
      <trkpt lat="46.90997" lon="-0.86715">
        <ele>127</ele>
        <time>2021-04-16T06:54:01Z</time>
      </trkpt>
      <trkpt lat="46.91005" lon="-0.86726">
        <ele>127</ele>
        <time>2021-04-16T06:54:15Z</time>
      </trkpt>
      <trkpt lat="46.91015" lon="-0.86725">
        <ele>127</ele>
        <time>2021-04-16T06:54:29Z</time>
      </trkpt>
      <trkpt lat="46.91019" lon="-0.86716">
        <ele>127</ele>
        <time>2021-04-16T06:54:38Z</time>
      </trkpt>
      <trkpt lat="46.91025" lon="-0.86702">
        <ele>127</ele>
        <time>2021-04-16T06:54:53Z</time>
      </trkpt>
      <trkpt lat="46.91031" lon="-0.8669">
        <ele>127</ele>
        <time>2021-04-16T06:55:07Z</time>
      </trkpt>
      <trkpt lat="46.91042" lon="-0.86667">
        <ele>127</ele>
        <time>2021-04-16T06:55:33Z</time>
      </trkpt>
      <trkpt lat="46.91047" lon="-0.86657">
        <ele>127</ele>
        <time>2021-04-16T06:55:44Z</time>
      </trkpt>
      <trkpt lat="46.91053" lon="-0.86643">
        <ele>127</ele>
        <time>2021-04-16T06:55:59Z</time>
      </trkpt>
      <trkpt lat="46.91062" lon="-0.86628">
        <ele>127</ele>
        <time>2021-04-16T06:56:17Z</time>
      </trkpt>
      <trkpt lat="46.91067" lon="-0.86616">
        <ele>128</ele>
        <time>2021-04-16T06:56:30Z</time>
      </trkpt>
      <trkpt lat="46.91076" lon="-0.86597">
        <ele>128</ele>
        <time>2021-04-16T06:56:51Z</time>
      </trkpt>
      <trkpt lat="46.91089" lon="-0.86575">
        <ele>129</ele>
        <time>2021-04-16T06:57:18Z</time>
      </trkpt>
      <trkpt lat="46.911" lon="-0.86559">
        <ele>132</ele>
        <time>2021-04-16T06:57:38Z</time>
      </trkpt>
      <trkpt lat="46.91108" lon="-0.8657">
        <ele>132</ele>
        <time>2021-04-16T06:57:53Z</time>
      </trkpt>
      <trkpt lat="46.9111" lon="-0.86578">
        <ele>131</ele>
        <time>2021-04-16T06:58:01Z</time>
      </trkpt>
      <trkpt lat="46.91112" lon="-0.86588">
        <ele>131</ele>
        <time>2021-04-16T06:58:10Z</time>
      </trkpt>
      <trkpt lat="46.91115" lon="-0.866">
        <ele>131</ele>
        <time>2021-04-16T06:58:22Z</time>
      </trkpt>
      <trkpt lat="46.91117" lon="-0.86607">
        <ele>131</ele>
        <time>2021-04-16T06:58:29Z</time>
      </trkpt>
      <trkpt lat="46.91118" lon="-0.86617">
        <ele>131</ele>
        <time>2021-04-16T06:58:38Z</time>
      </trkpt>
      <trkpt lat="46.91118" lon="-0.86628">
        <ele>131</ele>
        <time>2021-04-16T06:58:48Z</time>
      </trkpt>
      <trkpt lat="46.91119" lon="-0.86641">
        <ele>131</ele>
        <time>2021-04-16T06:59:00Z</time>
      </trkpt>
      <trkpt lat="46.91124" lon="-0.86643">
        <ele>132</ele>
        <time>2021-04-16T06:59:07Z</time>
      </trkpt>
      <trkpt lat="46.91123" lon="-0.86654">
        <ele>131</ele>
        <time>2021-04-16T06:59:17Z</time>
      </trkpt>
      <trkpt lat="46.91124" lon="-0.86676">
        <ele>131</ele>
        <time>2021-04-16T06:59:37Z</time>
      </trkpt>
      <trkpt lat="46.91116" lon="-0.86682">
        <ele>130</ele>
        <time>2021-04-16T06:59:49Z</time>
      </trkpt>
      <trkpt lat="46.91122" lon="-0.86707">
        <ele>130</ele>
        <time>2021-04-16T07:00:13Z</time>
      </trkpt>
      <trkpt lat="46.91125" lon="-0.86717">
        <ele>130</ele>
        <time>2021-04-16T07:00:23Z</time>
      </trkpt>
      <trkpt lat="46.91139" lon="-0.86726">
        <ele>130</ele>
        <time>2021-04-16T07:00:44Z</time>
      </trkpt>
      <trkpt lat="46.91145" lon="-0.86732">
        <ele>130</ele>
        <time>2021-04-16T07:00:53Z</time>
      </trkpt>
      <trkpt lat="46.91149" lon="-0.86735">
        <ele>130</ele>
        <time>2021-04-16T07:00:59Z</time>
      </trkpt>
      <trkpt lat="46.9116" lon="-0.8674">
        <ele>130</ele>
        <time>2021-04-16T07:01:15Z</time>
      </trkpt>
      <trkpt lat="46.91173" lon="-0.86729">
        <ele>132</ele>
        <time>2021-04-16T07:01:35Z</time>
      </trkpt>
      <trkpt lat="46.91177" lon="-0.86738">
        <ele>131</ele>
        <time>2021-04-16T07:01:44Z</time>
      </trkpt>
      <trkpt lat="46.91183" lon="-0.86747">
        <ele>131</ele>
        <time>2021-04-16T07:01:56Z</time>
      </trkpt>
      <trkpt lat="46.91188" lon="-0.86754">
        <ele>131</ele>
        <time>2021-04-16T07:02:05Z</time>
      </trkpt>
      <trkpt lat="46.91193" lon="-0.86766">
        <ele>131</ele>
        <time>2021-04-16T07:02:18Z</time>
      </trkpt>
      <trkpt lat="46.91198" lon="-0.86772">
        <ele>131</ele>
        <time>2021-04-16T07:02:27Z</time>
      </trkpt>
      <trkpt lat="46.91203" lon="-0.8678">
        <ele>131</ele>
        <time>2021-04-16T07:02:36Z</time>
      </trkpt>
      <trkpt lat="46.9121" lon="-0.86771">
        <ele>132</ele>
        <time>2021-04-16T07:02:49Z</time>
      </trkpt>
      <trkpt lat="46.91213" lon="-0.86763">
        <ele>132</ele>
        <time>2021-04-16T07:02:57Z</time>
      </trkpt>
      <trkpt lat="46.91214" lon="-0.86756">
        <ele>133</ele>
        <time>2021-04-16T07:03:04Z</time>
      </trkpt>
      <trkpt lat="46.91215" lon="-0.86752">
        <ele>133</ele>
        <time>2021-04-16T07:03:08Z</time>
      </trkpt>
      <trkpt lat="46.91216" lon="-0.86744">
        <ele>133</ele>
        <time>2021-04-16T07:03:15Z</time>
      </trkpt>
      <trkpt lat="46.91218" lon="-0.86738">
        <ele>133</ele>
        <time>2021-04-16T07:03:21Z</time>
      </trkpt>
      <trkpt lat="46.91226" lon="-0.86729">
        <ele>134</ele>
        <time>2021-04-16T07:03:35Z</time>
      </trkpt>
      <trkpt lat="46.91234" lon="-0.86725">
        <ele>134</ele>
        <time>2021-04-16T07:03:46Z</time>
      </trkpt>
      <trkpt lat="46.91259" lon="-0.86721">
        <ele>135</ele>
        <time>2021-04-16T07:04:19Z</time>
      </trkpt>
      <trkpt lat="46.91264" lon="-0.86727">
        <ele>136</ele>
        <time>2021-04-16T07:04:28Z</time>
      </trkpt>
      <trkpt lat="46.91278" lon="-0.86731">
        <ele>136</ele>
        <time>2021-04-16T07:04:47Z</time>
      </trkpt>
      <trkpt lat="46.91289" lon="-0.86732">
        <ele>137</ele>
        <time>2021-04-16T07:05:02Z</time>
      </trkpt>
      <trkpt lat="46.91299" lon="-0.86731">
        <ele>137</ele>
        <time>2021-04-16T07:05:15Z</time>
      </trkpt>
      <trkpt lat="46.91308" lon="-0.8673">
        <ele>138</ele>
        <time>2021-04-16T07:05:27Z</time>
      </trkpt>
      <trkpt lat="46.91317" lon="-0.86728">
        <ele>138</ele>
        <time>2021-04-16T07:05:39Z</time>
      </trkpt>
      <trkpt lat="46.91329" lon="-0.86719">
        <ele>139</ele>
        <time>2021-04-16T07:05:57Z</time>
      </trkpt>
      <trkpt lat="46.91338" lon="-0.86712">
        <ele>139</ele>
        <time>2021-04-16T07:06:11Z</time>
      </trkpt>
      <trkpt lat="46.91352" lon="-0.86701">
        <ele>140</ele>
        <time>2021-04-16T07:06:32Z</time>
      </trkpt>
      <trkpt lat="46.91363" lon="-0.86694">
        <ele>140</ele>
        <time>2021-04-16T07:06:48Z</time>
      </trkpt>
      <trkpt lat="46.91376" lon="-0.86682">
        <ele>141</ele>
        <time>2021-04-16T07:07:09Z</time>
      </trkpt>
      <trkpt lat="46.91391" lon="-0.86672">
        <ele>141</ele>
        <time>2021-04-16T07:07:31Z</time>
      </trkpt>
      <trkpt lat="46.91402" lon="-0.86664">
        <ele>142</ele>
        <time>2021-04-16T07:07:47Z</time>
      </trkpt>
      <trkpt lat="46.91413" lon="-0.86655">
        <ele>142</ele>
        <time>2021-04-16T07:08:04Z</time>
      </trkpt>
      <trkpt lat="46.91423" lon="-0.86647">
        <ele>142</ele>
        <time>2021-04-16T07:08:19Z</time>
      </trkpt>
      <trkpt lat="46.91431" lon="-0.86641">
        <ele>143</ele>
        <time>2021-04-16T07:08:31Z</time>
      </trkpt>
      <trkpt lat="46.91441" lon="-0.86633">
        <ele>143</ele>
        <time>2021-04-16T07:08:46Z</time>
      </trkpt>
      <trkpt lat="46.91451" lon="-0.86627">
        <ele>143</ele>
        <time>2021-04-16T07:09:01Z</time>
      </trkpt>
      <trkpt lat="46.9146" lon="-0.86618">
        <ele>144</ele>
        <time>2021-04-16T07:09:15Z</time>
      </trkpt>
      <trkpt lat="46.91471" lon="-0.86609">
        <ele>145</ele>
        <time>2021-04-16T07:09:32Z</time>
      </trkpt>
      <trkpt lat="46.91478" lon="-0.86602">
        <ele>145</ele>
        <time>2021-04-16T07:09:43Z</time>
      </trkpt>
      <trkpt lat="46.91487" lon="-0.86595">
        <ele>146</ele>
        <time>2021-04-16T07:09:57Z</time>
      </trkpt>
      <trkpt lat="46.91502" lon="-0.86585">
        <ele>147</ele>
        <time>2021-04-16T07:10:19Z</time>
      </trkpt>
      <trkpt lat="46.9151" lon="-0.86576">
        <ele>147</ele>
        <time>2021-04-16T07:10:32Z</time>
      </trkpt>
      <trkpt lat="46.91523" lon="-0.86568">
        <ele>148</ele>
        <time>2021-04-16T07:10:51Z</time>
      </trkpt>
      <trkpt lat="46.91556" lon="-0.86536">
        <ele>148</ele>
        <time>2021-04-16T07:11:44Z</time>
      </trkpt>
      <trkpt lat="46.91626" lon="-0.86503">
        <ele>152</ele>
        <time>2021-04-16T07:13:22Z</time>
      </trkpt>
      <trkpt lat="46.91639" lon="-0.86535">
        <ele>153</ele>
        <time>2021-04-16T07:13:56Z</time>
      </trkpt>
      <trkpt lat="46.91675" lon="-0.86556">
        <ele>155</ele>
        <time>2021-04-16T07:14:48Z</time>
      </trkpt>
      <trkpt lat="46.91721" lon="-0.86591">
        <ele>158</ele>
        <time>2021-04-16T07:15:57Z</time>
      </trkpt>
      <trkpt lat="46.91759" lon="-0.86619">
        <ele>160</ele>
        <time>2021-04-16T07:16:54Z</time>
      </trkpt>
      <trkpt lat="46.91801" lon="-0.86636">
        <ele>162</ele>
        <time>2021-04-16T07:17:52Z</time>
      </trkpt>
      <trkpt lat="46.91841" lon="-0.86646">
        <ele>164</ele>
        <time>2021-04-16T07:18:46Z</time>
      </trkpt>
      <trkpt lat="46.91887" lon="-0.86652">
        <ele>168</ele>
        <time>2021-04-16T07:19:48Z</time>
      </trkpt>
      <trkpt lat="46.91927" lon="-0.86636">
        <ele>171</ele>
        <time>2021-04-16T07:20:43Z</time>
      </trkpt>
      <trkpt lat="46.91932" lon="-0.86596">
        <ele>173</ele>
        <time>2021-04-16T07:21:20Z</time>
      </trkpt>
      <trkpt lat="46.91943" lon="-0.86562">
        <ele>174</ele>
        <time>2021-04-16T07:21:54Z</time>
      </trkpt>
      <trkpt lat="46.91944" lon="-0.86535">
        <ele>175</ele>
        <time>2021-04-16T07:22:19Z</time>
      </trkpt>
      <trkpt lat="46.91959" lon="-0.86508">
        <ele>176</ele>
        <time>2021-04-16T07:22:51Z</time>
      </trkpt>
      <trkpt lat="46.91973" lon="-0.86488">
        <ele>177</ele>
        <time>2021-04-16T07:23:17Z</time>
      </trkpt>
      <trkpt lat="46.91983" lon="-0.86471">
        <ele>178</ele>
        <time>2021-04-16T07:23:37Z</time>
      </trkpt>
      <trkpt lat="46.92005" lon="-0.86455">
        <ele>179</ele>
        <time>2021-04-16T07:24:10Z</time>
      </trkpt>
      <trkpt lat="46.92038" lon="-0.86449">
        <ele>180</ele>
        <time>2021-04-16T07:24:55Z</time>
      </trkpt>
      <trkpt lat="46.92075" lon="-0.8645">
        <ele>181</ele>
        <time>2021-04-16T07:25:44Z</time>
      </trkpt>
      <trkpt lat="46.92105" lon="-0.86437">
        <ele>181</ele>
        <time>2021-04-16T07:26:26Z</time>
      </trkpt>
      <trkpt lat="46.92124" lon="-0.86413">
        <ele>181</ele>
        <time>2021-04-16T07:26:59Z</time>
      </trkpt>
      <trkpt lat="46.92138" lon="-0.8639">
        <ele>181</ele>
        <time>2021-04-16T07:27:27Z</time>
      </trkpt>
      <trkpt lat="46.92149" lon="-0.86362">
        <ele>181</ele>
        <time>2021-04-16T07:27:57Z</time>
      </trkpt>
      <trkpt lat="46.9216" lon="-0.86338">
        <ele>181</ele>
        <time>2021-04-16T07:28:23Z</time>
      </trkpt>
      <trkpt lat="46.92164" lon="-0.86322">
        <ele>181</ele>
        <time>2021-04-16T07:28:39Z</time>
      </trkpt>
      <trkpt lat="46.92172" lon="-0.86297">
        <ele>181</ele>
        <time>2021-04-16T07:29:04Z</time>
      </trkpt>
      <trkpt lat="46.9218" lon="-0.86276">
        <ele>182</ele>
        <time>2021-04-16T07:29:26Z</time>
      </trkpt>
      <trkpt lat="46.92187" lon="-0.86257">
        <ele>182</ele>
        <time>2021-04-16T07:29:45Z</time>
      </trkpt>
      <trkpt lat="46.92194" lon="-0.86239">
        <ele>182</ele>
        <time>2021-04-16T07:30:04Z</time>
      </trkpt>
      <trkpt lat="46.92202" lon="-0.86215">
        <ele>182</ele>
        <time>2021-04-16T07:30:29Z</time>
      </trkpt>
      <trkpt lat="46.9221" lon="-0.86196">
        <ele>181</ele>
        <time>2021-04-16T07:30:49Z</time>
      </trkpt>
      <trkpt lat="46.92218" lon="-0.86169">
        <ele>181</ele>
        <time>2021-04-16T07:31:16Z</time>
      </trkpt>
      <trkpt lat="46.92224" lon="-0.86143">
        <ele>181</ele>
        <time>2021-04-16T07:31:41Z</time>
      </trkpt>
      <trkpt lat="46.92229" lon="-0.86118">
        <ele>182</ele>
        <time>2021-04-16T07:32:04Z</time>
      </trkpt>
      <trkpt lat="46.92229" lon="-0.8609">
        <ele>182</ele>
        <time>2021-04-16T07:32:30Z</time>
      </trkpt>
      <trkpt lat="46.92225" lon="-0.86054">
        <ele>182</ele>
        <time>2021-04-16T07:33:03Z</time>
      </trkpt>
      <trkpt lat="46.92223" lon="-0.8602">
        <ele>183</ele>
        <time>2021-04-16T07:33:34Z</time>
      </trkpt>
      <trkpt lat="46.92216" lon="-0.85995">
        <ele>182</ele>
        <time>2021-04-16T07:33:59Z</time>
      </trkpt>
      <trkpt lat="46.92209" lon="-0.85955">
        <ele>183</ele>
        <time>2021-04-16T07:34:37Z</time>
      </trkpt>
      <trkpt lat="46.92207" lon="-0.85923">
        <ele>183</ele>
        <time>2021-04-16T07:35:06Z</time>
      </trkpt>
      <trkpt lat="46.92197" lon="-0.85906">
        <ele>183</ele>
        <time>2021-04-16T07:35:26Z</time>
      </trkpt>
      <trkpt lat="46.92184" lon="-0.859">
        <ele>182</ele>
        <time>2021-04-16T07:35:45Z</time>
      </trkpt>
      <trkpt lat="46.92169" lon="-0.8589">
        <ele>181</ele>
        <time>2021-04-16T07:36:07Z</time>
      </trkpt>
      <trkpt lat="46.92151" lon="-0.85882">
        <ele>180</ele>
        <time>2021-04-16T07:36:32Z</time>
      </trkpt>
      <trkpt lat="46.92135" lon="-0.85871">
        <ele>180</ele>
        <time>2021-04-16T07:36:55Z</time>
      </trkpt>
      <trkpt lat="46.92119" lon="-0.85862">
        <ele>179</ele>
        <time>2021-04-16T07:37:18Z</time>
      </trkpt>
      <trkpt lat="46.92113" lon="-0.85854">
        <ele>179</ele>
        <time>2021-04-16T07:37:29Z</time>
      </trkpt>
      <trkpt lat="46.92108" lon="-0.85842">
        <ele>179</ele>
        <time>2021-04-16T07:37:42Z</time>
      </trkpt>
      <trkpt lat="46.92072" lon="-0.85869">
        <ele>177</ele>
        <time>2021-04-16T07:38:36Z</time>
      </trkpt>
      <trkpt lat="46.92061" lon="-0.85881">
        <ele>177</ele>
        <time>2021-04-16T07:38:54Z</time>
      </trkpt>
      <trkpt lat="46.92029" lon="-0.85908">
        <ele>175</ele>
        <time>2021-04-16T07:39:43Z</time>
      </trkpt>
      <trkpt lat="46.92004" lon="-0.85928">
        <ele>173</ele>
        <time>2021-04-16T07:40:21Z</time>
      </trkpt>
      <trkpt lat="46.91978" lon="-0.85925">
        <ele>172</ele>
        <time>2021-04-16T07:40:56Z</time>
      </trkpt>
      <trkpt lat="46.91988" lon="-0.85937">
        <ele>172</ele>
        <time>2021-04-16T07:41:13Z</time>
      </trkpt>
      <trkpt lat="46.91992" lon="-0.85956">
        <ele>172</ele>
        <time>2021-04-16T07:41:31Z</time>
      </trkpt>
      <trkpt lat="46.91987" lon="-0.85956">
        <ele>172</ele>
        <time>2021-04-16T07:41:38Z</time>
      </trkpt>
      <trkpt lat="46.91973" lon="-0.85954">
        <ele>171</ele>
        <time>2021-04-16T07:41:57Z</time>
      </trkpt>
      <trkpt lat="46.9196" lon="-0.85956">
        <ele>170</ele>
        <time>2021-04-16T07:42:14Z</time>
      </trkpt>
      <trkpt lat="46.91945" lon="-0.85957">
        <ele>170</ele>
        <time>2021-04-16T07:42:34Z</time>
      </trkpt>
      <trkpt lat="46.91928" lon="-0.85967">
        <ele>169</ele>
        <time>2021-04-16T07:42:59Z</time>
      </trkpt>
      <trkpt lat="46.91917" lon="-0.85984">
        <ele>168</ele>
        <time>2021-04-16T07:43:20Z</time>
      </trkpt>
      <trkpt lat="46.91903" lon="-0.85994">
        <ele>167</ele>
        <time>2021-04-16T07:43:41Z</time>
      </trkpt>
      <trkpt lat="46.91889" lon="-0.86006">
        <ele>166</ele>
        <time>2021-04-16T07:44:03Z</time>
      </trkpt>
      <trkpt lat="46.91879" lon="-0.86019">
        <ele>166</ele>
        <time>2021-04-16T07:44:20Z</time>
      </trkpt>
      <trkpt lat="46.91869" lon="-0.86047">
        <ele>165</ele>
        <time>2021-04-16T07:44:49Z</time>
      </trkpt>
      <trkpt lat="46.91854" lon="-0.86077">
        <ele>164</ele>
        <time>2021-04-16T07:45:23Z</time>
      </trkpt>
      <trkpt lat="46.9184" lon="-0.86098">
        <ele>164</ele>
        <time>2021-04-16T07:45:50Z</time>
      </trkpt>
      <trkpt lat="46.91832" lon="-0.86108">
        <ele>164</ele>
        <time>2021-04-16T07:46:04Z</time>
      </trkpt>
      <trkpt lat="46.91838" lon="-0.86125">
        <ele>164</ele>
        <time>2021-04-16T07:46:21Z</time>
      </trkpt>
      <trkpt lat="46.91827" lon="-0.86143">
        <ele>163</ele>
        <time>2021-04-16T07:46:43Z</time>
      </trkpt>
      <trkpt lat="46.91815" lon="-0.86152">
        <ele>162</ele>
        <time>2021-04-16T07:47:01Z</time>
      </trkpt>
      <trkpt lat="46.91801" lon="-0.86171">
        <ele>161</ele>
        <time>2021-04-16T07:47:27Z</time>
      </trkpt>
      <trkpt lat="46.91787" lon="-0.86184">
        <ele>160</ele>
        <time>2021-04-16T07:47:49Z</time>
      </trkpt>
      <trkpt lat="46.91771" lon="-0.86201">
        <ele>159</ele>
        <time>2021-04-16T07:48:15Z</time>
      </trkpt>
      <trkpt lat="46.91763" lon="-0.86211">
        <ele>159</ele>
        <time>2021-04-16T07:48:29Z</time>
      </trkpt>
      <trkpt lat="46.91751" lon="-0.86229">
        <ele>157</ele>
        <time>2021-04-16T07:48:52Z</time>
      </trkpt>
      <trkpt lat="46.91737" lon="-0.86244">
        <ele>156</ele>
        <time>2021-04-16T07:49:16Z</time>
      </trkpt>
      <trkpt lat="46.91719" lon="-0.86273">
        <ele>155</ele>
        <time>2021-04-16T07:49:51Z</time>
      </trkpt>
      <trkpt lat="46.91709" lon="-0.86303">
        <ele>155</ele>
        <time>2021-04-16T07:50:22Z</time>
      </trkpt>
      <trkpt lat="46.91686" lon="-0.86352">
        <ele>154</ele>
        <time>2021-04-16T07:51:16Z</time>
      </trkpt>
      <trkpt lat="46.9168" lon="-0.86362">
        <ele>154</ele>
        <time>2021-04-16T07:51:28Z</time>
      </trkpt>
      <trkpt lat="46.9166" lon="-0.86405">
        <ele>152</ele>
        <time>2021-04-16T07:52:15Z</time>
      </trkpt>
      <trkpt lat="46.91654" lon="-0.86418">
        <ele>152</ele>
        <time>2021-04-16T07:52:30Z</time>
      </trkpt>
      <trkpt lat="46.91638" lon="-0.86447">
        <ele>151</ele>
        <time>2021-04-16T07:53:04Z</time>
      </trkpt>
      <trkpt lat="46.91635" lon="-0.8648">
        <ele>152</ele>
        <time>2021-04-16T07:53:34Z</time>
      </trkpt>
      <trkpt lat="46.91627" lon="-0.86489">
        <ele>152</ele>
        <time>2021-04-16T07:53:47Z</time>
      </trkpt>
      <trkpt lat="46.91628" lon="-0.86495">
        <ele>152</ele>
        <time>2021-04-16T07:53:53Z</time>
      </trkpt>
      <trkpt lat="46.9161" lon="-0.86507">
        <ele>151</ele>
        <time>2021-04-16T07:54:20Z</time>
      </trkpt>
      <trkpt lat="46.91597" lon="-0.86507">
        <ele>150</ele>
        <time>2021-04-16T07:54:37Z</time>
      </trkpt>
      <trkpt lat="46.91576" lon="-0.86518">
        <ele>149</ele>
        <time>2021-04-16T07:55:07Z</time>
      </trkpt>
      <trkpt lat="46.91562" lon="-0.8653">
        <ele>148</ele>
        <time>2021-04-16T07:55:28Z</time>
      </trkpt>
      <trkpt lat="46.91553" lon="-0.86523">
        <ele>148</ele>
        <time>2021-04-16T07:55:42Z</time>
      </trkpt>
      <trkpt lat="46.91539" lon="-0.86491">
        <ele>147</ele>
        <time>2021-04-16T07:56:17Z</time>
      </trkpt>
      <trkpt lat="46.91526" lon="-0.86469">
        <ele>145</ele>
        <time>2021-04-16T07:56:43Z</time>
      </trkpt>
      <trkpt lat="46.91513" lon="-0.86444">
        <ele>144</ele>
        <time>2021-04-16T07:57:12Z</time>
      </trkpt>
      <trkpt lat="46.91489" lon="-0.86412">
        <ele>142</ele>
        <time>2021-04-16T07:57:55Z</time>
      </trkpt>
      <trkpt lat="46.91468" lon="-0.8639">
        <ele>140</ele>
        <time>2021-04-16T07:58:29Z</time>
      </trkpt>
      <trkpt lat="46.91433" lon="-0.86363">
        <ele>138</ele>
        <time>2021-04-16T07:59:22Z</time>
      </trkpt>
      <trkpt lat="46.91425" lon="-0.86356">
        <ele>138</ele>
        <time>2021-04-16T07:59:35Z</time>
      </trkpt>
      <trkpt lat="46.91399" lon="-0.86313">
        <ele>137</ele>
        <time>2021-04-16T08:00:27Z</time>
      </trkpt>
      <trkpt lat="46.91392" lon="-0.86296">
        <ele>137</ele>
        <time>2021-04-16T08:00:45Z</time>
      </trkpt>
      <trkpt lat="46.91387" lon="-0.86276">
        <ele>137</ele>
        <time>2021-04-16T08:01:05Z</time>
      </trkpt>
      <trkpt lat="46.91388" lon="-0.86267">
        <ele>137</ele>
        <time>2021-04-16T08:01:13Z</time>
      </trkpt>
      <trkpt lat="46.91387" lon="-0.86249">
        <ele>137</ele>
        <time>2021-04-16T08:01:29Z</time>
      </trkpt>
      <trkpt lat="46.91386" lon="-0.86235">
        <ele>137</ele>
        <time>2021-04-16T08:01:42Z</time>
      </trkpt>
      <trkpt lat="46.91383" lon="-0.8622">
        <ele>137</ele>
        <time>2021-04-16T08:01:56Z</time>
      </trkpt>
      <trkpt lat="46.91378" lon="-0.86206">
        <ele>137</ele>
        <time>2021-04-16T08:02:11Z</time>
      </trkpt>
      <trkpt lat="46.91368" lon="-0.86196">
        <ele>137</ele>
        <time>2021-04-16T08:02:27Z</time>
      </trkpt>
      <trkpt lat="46.9135" lon="-0.86184">
        <ele>136</ele>
        <time>2021-04-16T08:02:53Z</time>
      </trkpt>
      <trkpt lat="46.91336" lon="-0.86171">
        <ele>136</ele>
        <time>2021-04-16T08:03:15Z</time>
      </trkpt>
      <trkpt lat="46.91324" lon="-0.86158">
        <ele>137</ele>
        <time>2021-04-16T08:03:35Z</time>
      </trkpt>
      <trkpt lat="46.91312" lon="-0.86147">
        <ele>137</ele>
        <time>2021-04-16T08:03:54Z</time>
      </trkpt>
      <trkpt lat="46.91302" lon="-0.86131">
        <ele>138</ele>
        <time>2021-04-16T08:04:14Z</time>
      </trkpt>
      <trkpt lat="46.91296" lon="-0.86116">
        <ele>138</ele>
        <time>2021-04-16T08:04:30Z</time>
      </trkpt>
      <trkpt lat="46.91289" lon="-0.86104">
        <ele>138</ele>
        <time>2021-04-16T08:04:44Z</time>
      </trkpt>
      <trkpt lat="46.91278" lon="-0.86093">
        <ele>138</ele>
        <time>2021-04-16T08:05:02Z</time>
      </trkpt>
      <trkpt lat="46.9127" lon="-0.86088">
        <ele>138</ele>
        <time>2021-04-16T08:05:14Z</time>
      </trkpt>
      <trkpt lat="46.91256" lon="-0.86091">
        <ele>137</ele>
        <time>2021-04-16T08:05:33Z</time>
      </trkpt>
      <trkpt lat="46.91246" lon="-0.86105">
        <ele>138</ele>
        <time>2021-04-16T08:05:51Z</time>
      </trkpt>
      <trkpt lat="46.91241" lon="-0.86117">
        <ele>139</ele>
        <time>2021-04-16T08:06:04Z</time>
      </trkpt>
      <trkpt lat="46.91241" lon="-0.86126">
        <ele>139</ele>
        <time>2021-04-16T08:06:12Z</time>
      </trkpt>
      <trkpt lat="46.91236" lon="-0.86131">
        <ele>140</ele>
        <time>2021-04-16T08:06:20Z</time>
      </trkpt>
      <trkpt lat="46.91223" lon="-0.86124">
        <ele>142</ele>
        <time>2021-04-16T08:06:39Z</time>
      </trkpt>
      <trkpt lat="46.91218" lon="-0.86118">
        <ele>143</ele>
        <time>2021-04-16T08:06:47Z</time>
      </trkpt>
      <trkpt lat="46.91207" lon="-0.86117">
        <ele>145</ele>
        <time>2021-04-16T08:07:02Z</time>
      </trkpt>
      <trkpt lat="46.91201" lon="-0.86116">
        <ele>146</ele>
        <time>2021-04-16T08:07:10Z</time>
      </trkpt>
      <trkpt lat="46.91193" lon="-0.86116">
        <ele>147</ele>
        <time>2021-04-16T08:07:21Z</time>
      </trkpt>
      <trkpt lat="46.91186" lon="-0.86116">
        <ele>148</ele>
        <time>2021-04-16T08:07:30Z</time>
      </trkpt>
      <trkpt lat="46.91189" lon="-0.86125">
        <ele>148</ele>
        <time>2021-04-16T08:07:39Z</time>
      </trkpt>
      <trkpt lat="46.91188" lon="-0.86137">
        <ele>148</ele>
        <time>2021-04-16T08:07:50Z</time>
      </trkpt>
      <trkpt lat="46.91183" lon="-0.86163">
        <ele>150</ele>
        <time>2021-04-16T08:08:15Z</time>
      </trkpt>
      <trkpt lat="46.9118" lon="-0.86179">
        <ele>151</ele>
        <time>2021-04-16T08:08:30Z</time>
      </trkpt>
      <trkpt lat="46.91159" lon="-0.86186">
        <ele>153</ele>
        <time>2021-04-16T08:08:59Z</time>
      </trkpt>
      <trkpt lat="46.91155" lon="-0.86211">
        <ele>153</ele>
        <time>2021-04-16T08:09:22Z</time>
      </trkpt>
      <trkpt lat="46.91148" lon="-0.86225">
        <ele>153</ele>
        <time>2021-04-16T08:09:38Z</time>
      </trkpt>
      <trkpt lat="46.91131" lon="-0.8621">
        <ele>154</ele>
        <time>2021-04-16T08:10:04Z</time>
      </trkpt>
      <trkpt lat="46.91125" lon="-0.8621">
        <ele>154</ele>
        <time>2021-04-16T08:10:12Z</time>
      </trkpt>
      <trkpt lat="46.91098" lon="-0.86217">
        <ele>154</ele>
        <time>2021-04-16T08:10:49Z</time>
      </trkpt>
      <trkpt lat="46.91088" lon="-0.86216">
        <ele>155</ele>
        <time>2021-04-16T08:11:02Z</time>
      </trkpt>
      <trkpt lat="46.91082" lon="-0.86221">
        <ele>155</ele>
        <time>2021-04-16T08:11:12Z</time>
      </trkpt>
      <trkpt lat="46.91068" lon="-0.8623">
        <ele>155</ele>
        <time>2021-04-16T08:11:32Z</time>
      </trkpt>
      <trkpt lat="46.91063" lon="-0.8624">
        <ele>154</ele>
        <time>2021-04-16T08:11:43Z</time>
      </trkpt>
      <trkpt lat="46.91055" lon="-0.86244">
        <ele>154</ele>
        <time>2021-04-16T08:11:55Z</time>
      </trkpt>
      <trkpt lat="46.91052" lon="-0.86252">
        <ele>154</ele>
        <time>2021-04-16T08:12:03Z</time>
      </trkpt>
      <trkpt lat="46.91046" lon="-0.8626">
        <ele>154</ele>
        <time>2021-04-16T08:12:14Z</time>
      </trkpt>
      <trkpt lat="46.91001" lon="-0.86202">
        <ele>156</ele>
        <time>2021-04-16T08:13:34Z</time>
      </trkpt>
      <trkpt lat="46.90988" lon="-0.86187">
        <ele>157</ele>
        <time>2021-04-16T08:13:56Z</time>
      </trkpt>
      <trkpt lat="46.90961" lon="-0.86213">
        <ele>156</ele>
        <time>2021-04-16T08:14:39Z</time>
      </trkpt>
      <trkpt lat="46.90851" lon="-0.86201">
        <ele>157</ele>
        <time>2021-04-16T08:17:06Z</time>
      </trkpt>
      <trkpt lat="46.90836" lon="-0.86192">
        <ele>157</ele>
        <time>2021-04-16T08:17:28Z</time>
      </trkpt>
      <trkpt lat="46.90714" lon="-0.86135">
        <ele>162</ele>
        <time>2021-04-16T08:20:19Z</time>
      </trkpt>
      <trkpt lat="46.90672" lon="-0.86116">
        <ele>163</ele>
        <time>2021-04-16T08:21:17Z</time>
      </trkpt>
      <trkpt lat="46.90625" lon="-0.86078">
        <ele>165</ele>
        <time>2021-04-16T08:22:29Z</time>
      </trkpt>
      <trkpt lat="46.90594" lon="-0.86057">
        <ele>165</ele>
        <time>2021-04-16T08:23:15Z</time>
      </trkpt>
      <trkpt lat="46.90571" lon="-0.86053">
        <ele>164</ele>
        <time>2021-04-16T08:23:45Z</time>
      </trkpt>
      <trkpt lat="46.90506" lon="-0.86029">
        <ele>162</ele>
        <time>2021-04-16T08:25:15Z</time>
      </trkpt>
      <trkpt lat="46.90457" lon="-0.86007">
        <ele>162</ele>
        <time>2021-04-16T08:26:23Z</time>
      </trkpt>
      <trkpt lat="46.90484" lon="-0.85925">
        <ele>168</ele>
        <time>2021-04-16T08:27:46Z</time>
      </trkpt>
      <trkpt lat="46.905" lon="-0.85851">
        <ele>172</ele>
        <time>2021-04-16T08:28:57Z</time>
      </trkpt>
      <trkpt lat="46.90515" lon="-0.85787">
        <ele>172</ele>
        <time>2021-04-16T08:29:59Z</time>
      </trkpt>
      <trkpt lat="46.90531" lon="-0.85728">
        <ele>173</ele>
        <time>2021-04-16T08:30:57Z</time>
      </trkpt>
      <trkpt lat="46.90544" lon="-0.85672">
        <ele>174</ele>
        <time>2021-04-16T08:31:51Z</time>
      </trkpt>
      <trkpt lat="46.90553" lon="-0.8563">
        <ele>175</ele>
        <time>2021-04-16T08:32:31Z</time>
      </trkpt>
      <trkpt lat="46.90515" lon="-0.85626">
        <ele>175</ele>
        <time>2021-04-16T08:33:22Z</time>
      </trkpt>
      <trkpt lat="46.90464" lon="-0.85622">
        <ele>175</ele>
        <time>2021-04-16T08:34:30Z</time>
      </trkpt>
      <trkpt lat="46.90409" lon="-0.85619">
        <ele>175</ele>
        <time>2021-04-16T08:35:43Z</time>
      </trkpt>
      <trkpt lat="46.90146" lon="-0.85617">
        <ele>172</ele>
        <time>2021-04-16T08:41:34Z</time>
      </trkpt>
      <trkpt lat="46.90118" lon="-0.85616">
        <ele>171</ele>
        <time>2021-04-16T08:42:11Z</time>
      </trkpt>
      <trkpt lat="46.90088" lon="-0.85609">
        <ele>170</ele>
        <time>2021-04-16T08:42:52Z</time>
      </trkpt>
      <trkpt lat="46.90072" lon="-0.85604">
        <ele>169</ele>
        <time>2021-04-16T08:43:14Z</time>
      </trkpt>
      <trkpt lat="46.9005" lon="-0.85602">
        <ele>168</ele>
        <time>2021-04-16T08:43:43Z</time>
      </trkpt>
      <trkpt lat="46.90021" lon="-0.85604">
        <ele>167</ele>
        <time>2021-04-16T08:44:22Z</time>
      </trkpt>
      <trkpt lat="46.89998" lon="-0.85602">
        <ele>166</ele>
        <time>2021-04-16T08:44:53Z</time>
      </trkpt>
      <trkpt lat="46.8997" lon="-0.85603">
        <ele>165</ele>
        <time>2021-04-16T08:45:30Z</time>
      </trkpt>
      <trkpt lat="46.89967" lon="-0.85623">
        <ele>164</ele>
        <time>2021-04-16T08:45:49Z</time>
      </trkpt>
      <trkpt lat="46.89969" lon="-0.85682">
        <ele>163</ele>
        <time>2021-04-16T08:46:43Z</time>
      </trkpt>
      <trkpt lat="46.8997" lon="-0.85726">
        <ele>160</ele>
        <time>2021-04-16T08:47:23Z</time>
      </trkpt>
      <trkpt lat="46.89965" lon="-0.85745">
        <ele>158</ele>
        <time>2021-04-16T08:47:41Z</time>
      </trkpt>
      <trkpt lat="46.89952" lon="-0.85768">
        <ele>156</ele>
        <time>2021-04-16T08:48:09Z</time>
      </trkpt>
      <trkpt lat="46.89937" lon="-0.85783">
        <ele>154</ele>
        <time>2021-04-16T08:48:33Z</time>
      </trkpt>
      <trkpt lat="46.89915" lon="-0.85802">
        <ele>152</ele>
        <time>2021-04-16T08:49:07Z</time>
      </trkpt>
      <trkpt lat="46.89893" lon="-0.85814">
        <ele>150</ele>
        <time>2021-04-16T08:49:38Z</time>
      </trkpt>
      <trkpt lat="46.89856" lon="-0.85815">
        <ele>148</ele>
        <time>2021-04-16T08:50:28Z</time>
      </trkpt>
      <trkpt lat="46.89834" lon="-0.85818">
        <ele>146</ele>
        <time>2021-04-16T08:50:57Z</time>
      </trkpt>
      <trkpt lat="46.89824" lon="-0.85825">
        <ele>145</ele>
        <time>2021-04-16T08:51:12Z</time>
      </trkpt>
      <trkpt lat="46.89811" lon="-0.85836">
        <ele>144</ele>
        <time>2021-04-16T08:51:32Z</time>
      </trkpt>
      <trkpt lat="46.89822" lon="-0.85851">
        <ele>143</ele>
        <time>2021-04-16T08:51:52Z</time>
      </trkpt>
      <trkpt lat="46.89838" lon="-0.85867">
        <ele>143</ele>
        <time>2021-04-16T08:52:18Z</time>
      </trkpt>
      <trkpt lat="46.89859" lon="-0.85883">
        <ele>142</ele>
        <time>2021-04-16T08:52:49Z</time>
      </trkpt>
      <trkpt lat="46.89898" lon="-0.85875">
        <ele>143</ele>
        <time>2021-04-16T08:53:42Z</time>
      </trkpt>
      <trkpt lat="46.89938" lon="-0.85876">
        <ele>144</ele>
        <time>2021-04-16T08:54:35Z</time>
      </trkpt>
      <trkpt lat="46.89974" lon="-0.85896">
        <ele>142</ele>
        <time>2021-04-16T08:55:27Z</time>
      </trkpt>
      <trkpt lat="46.89997" lon="-0.85917">
        <ele>140</ele>
        <time>2021-04-16T08:56:03Z</time>
      </trkpt>
      <trkpt lat="46.90026" lon="-0.85937">
        <ele>141</ele>
        <time>2021-04-16T08:56:46Z</time>
      </trkpt>
      <trkpt lat="46.90061" lon="-0.85951">
        <ele>142</ele>
        <time>2021-04-16T08:57:34Z</time>
      </trkpt>
      <trkpt lat="46.90107" lon="-0.85963">
        <ele>141</ele>
        <time>2021-04-16T08:58:37Z</time>
      </trkpt>
      <trkpt lat="46.90153" lon="-0.85965">
        <ele>141</ele>
        <time>2021-04-16T08:59:38Z</time>
      </trkpt>
      <trkpt lat="46.90194" lon="-0.85983">
        <ele>140</ele>
        <time>2021-04-16T09:00:35Z</time>
      </trkpt>
      <trkpt lat="46.90231" lon="-0.86">
        <ele>139</ele>
        <time>2021-04-16T09:01:27Z</time>
      </trkpt>
      <trkpt lat="46.90269" lon="-0.86025">
        <ele>141</ele>
        <time>2021-04-16T09:02:22Z</time>
      </trkpt>
      <trkpt lat="46.90308" lon="-0.8605">
        <ele>144</ele>
        <time>2021-04-16T09:03:19Z</time>
      </trkpt>
      <trkpt lat="46.90316" lon="-0.86059">
        <ele>144</ele>
        <time>2021-04-16T09:03:33Z</time>
      </trkpt>
      <trkpt lat="46.90339" lon="-0.8607">
        <ele>146</ele>
        <time>2021-04-16T09:04:05Z</time>
      </trkpt>
      <trkpt lat="46.90333" lon="-0.86081">
        <ele>144</ele>
        <time>2021-04-16T09:04:18Z</time>
      </trkpt>
      <trkpt lat="46.90324" lon="-0.86096">
        <ele>142</ele>
        <time>2021-04-16T09:04:36Z</time>
      </trkpt>
      <trkpt lat="46.90315" lon="-0.86091">
        <ele>142</ele>
        <time>2021-04-16T09:04:49Z</time>
      </trkpt>
      <trkpt lat="46.90302" lon="-0.86083">
        <ele>141</ele>
        <time>2021-04-16T09:05:08Z</time>
      </trkpt>
      <trkpt lat="46.90293" lon="-0.8608">
        <ele>140</ele>
        <time>2021-04-16T09:05:20Z</time>
      </trkpt>
      <trkpt lat="46.9028" lon="-0.86076">
        <ele>139</ele>
        <time>2021-04-16T09:05:38Z</time>
      </trkpt>
      <trkpt lat="46.90268" lon="-0.86073">
        <ele>138</ele>
        <time>2021-04-16T09:05:54Z</time>
      </trkpt>
      <trkpt lat="46.90256" lon="-0.86077">
        <ele>136</ele>
        <time>2021-04-16T09:06:10Z</time>
      </trkpt>
      <trkpt lat="46.90247" lon="-0.86077">
        <ele>136</ele>
        <time>2021-04-16T09:06:22Z</time>
      </trkpt>
      <trkpt lat="46.90239" lon="-0.8607">
        <ele>137</ele>
        <time>2021-04-16T09:06:35Z</time>
      </trkpt>
      <trkpt lat="46.9023" lon="-0.86068">
        <ele>137</ele>
        <time>2021-04-16T09:06:47Z</time>
      </trkpt>
      <trkpt lat="46.9022" lon="-0.86073">
        <ele>138</ele>
        <time>2021-04-16T09:07:01Z</time>
      </trkpt>
      <trkpt lat="46.90213" lon="-0.86085">
        <ele>139</ele>
        <time>2021-04-16T09:07:15Z</time>
      </trkpt>
      <trkpt lat="46.90221" lon="-0.86101">
        <ele>140</ele>
        <time>2021-04-16T09:07:34Z</time>
      </trkpt>
      <trkpt lat="46.90236" lon="-0.86123">
        <ele>140</ele>
        <time>2021-04-16T09:08:02Z</time>
      </trkpt>
      <trkpt lat="46.90266" lon="-0.86143">
        <ele>140</ele>
        <time>2021-04-16T09:08:46Z</time>
      </trkpt>
      <trkpt lat="46.90283" lon="-0.86163">
        <ele>141</ele>
        <time>2021-04-16T09:09:15Z</time>
      </trkpt>
      <trkpt lat="46.90285" lon="-0.86178">
        <ele>142</ele>
        <time>2021-04-16T09:09:29Z</time>
      </trkpt>
      <trkpt lat="46.90285" lon="-0.86205">
        <ele>144</ele>
        <time>2021-04-16T09:09:54Z</time>
      </trkpt>
      <trkpt lat="46.90363" lon="-0.8633">
        <ele>143</ele>
        <time>2021-04-16T09:12:28Z</time>
      </trkpt>
      <trkpt lat="46.90379" lon="-0.86356">
        <ele>141</ele>
        <time>2021-04-16T09:13:00Z</time>
      </trkpt>
      <trkpt lat="46.90388" lon="-0.86388">
        <ele>142</ele>
        <time>2021-04-16T09:13:31Z</time>
      </trkpt>
      <trkpt lat="46.90411" lon="-0.86405">
        <ele>140</ele>
        <time>2021-04-16T09:14:06Z</time>
      </trkpt>
      <trkpt lat="46.90422" lon="-0.86431">
        <ele>142</ele>
        <time>2021-04-16T09:14:34Z</time>
      </trkpt>
      <trkpt lat="46.90457" lon="-0.86453">
        <ele>142</ele>
        <time>2021-04-16T09:15:24Z</time>
      </trkpt>
      <trkpt lat="46.90489" lon="-0.86472">
        <ele>141</ele>
        <time>2021-04-16T09:16:11Z</time>
      </trkpt>
      <trkpt lat="46.9053" lon="-0.86489">
        <ele>141</ele>
        <time>2021-04-16T09:17:07Z</time>
      </trkpt>
      <trkpt lat="46.90562" lon="-0.86486">
        <ele>139</ele>
        <time>2021-04-16T09:17:50Z</time>
      </trkpt>
      <trkpt lat="46.906" lon="-0.86485">
        <ele>137</ele>
        <time>2021-04-16T09:18:41Z</time>
      </trkpt>
      <trkpt lat="46.90645" lon="-0.86478">
        <ele>135</ele>
        <time>2021-04-16T09:19:41Z</time>
      </trkpt>
      <trkpt lat="46.90677" lon="-0.86484">
        <ele>134</ele>
        <time>2021-04-16T09:20:24Z</time>
      </trkpt>
      <trkpt lat="46.90706" lon="-0.86504">
        <ele>133</ele>
        <time>2021-04-16T09:21:07Z</time>
      </trkpt>
      <trkpt lat="46.90725" lon="-0.86533">
        <ele>135</ele>
        <time>2021-04-16T09:21:44Z</time>
      </trkpt>
      <trkpt lat="46.90739" lon="-0.86556">
        <ele>135</ele>
        <time>2021-04-16T09:22:12Z</time>
      </trkpt>
      <trkpt lat="46.9076" lon="-0.86599">
        <ele>136</ele>
        <time>2021-04-16T09:23:00Z</time>
      </trkpt>
      <trkpt lat="46.90833" lon="-0.86636">
        <ele>132</ele>
        <time>2021-04-16T09:24:43Z</time>
      </trkpt>
      <trkpt lat="46.90908" lon="-0.86679">
        <ele>130</ele>
        <time>2021-04-16T09:26:31Z</time>
      </trkpt>
      <trkpt lat="46.90946" lon="-0.86681">
        <ele>128</ele>
        <time>2021-04-16T09:27:21Z</time>
      </trkpt>
      <trkpt lat="46.90958" lon="-0.86681">
        <ele>128</ele>
        <time>2021-04-16T09:27:37Z</time>
      </trkpt>
      <trkpt lat="46.90983" lon="-0.86692">
        <ele>127</ele>
        <time>2021-04-16T09:28:12Z</time>
      </trkpt>
      <trkpt lat="46.90997" lon="-0.86713">
        <ele>127</ele>
        <time>2021-04-16T09:28:39Z</time>
      </trkpt>
    </trkseg>
  </trk>
</gpx>